Aranspass, Texas
Current Conditions -  °F | °C
As of 7:15 AM on Friday 28 Nov 2014 (Local Time) from KTFP Reporting Station
Haze Haze  
Wind Chill: 12°   Ceiling: 700
Heat Index: 12°   Visibility: 1mi
Dew Point: 12°   Wind: 0mph
Humidity: 95%   Direction: NA
Pressure: 30.31"   Gusts: NA
Location:  27.9399°N, 97.1805°W
Report Text: KTFP 281315Z AUTO 00000KT 1SM BR VV007 12/12 A3031 RMK AO2 T01240117
Loading
Personal Weather Stations






























Interactive Weather Map New forecast layout! Learn more

10-Day Weather Forecast

Advertisements
Track Severe Weather on mobile